sensor_id;sensor_type;location;lat;lon;timestamp;pressure;altitude;pressure_sealevel;temperature;humidity
74065;BME280;62421;51.412;5.432;2024-03-23T00:53:58;100986.81;;;5.77;100.00
74065;BME280;62421;51.412;5.432;2024-03-23T00:56:23;100977.94;;;5.76;100.00
74065;BME280;62421;51.412;5.432;2024-03-23T00:58:49;100973.56;;;5.75;100.00
74065;BME280;62421;51.412;5.432;2024-03-23T01:01:15;100967.38;;;5.74;100.00
74065;BME280;62421;51.412;5.432;2024-03-23T01:03:40;100970.03;;;5.74;100.00
74065;BME280;62421;51.412;5.432;2024-03-23T01:06:06;100961.25;;;5.72;100.00
74065;BME280;62421;51.412;5.432;2024-03-23T01:08:31;100964.00;;;5.71;100.00
74065;BME280;62421;51.412;5.432;2024-03-23T01:10:58;100965.94;;;5.67;100.00
74065;BME280;62421;51.412;5.432;2024-03-23T01:13:23;100966.88;;;5.66;100.00
74065;BME280;62421;51.412;5.432;2024-03-23T01:15:50;100944.84;;;5.63;100.00
74065;BME280;62421;51.412;5.432;2024-03-23T01:18:16;100942.34;;;5.60;100.00
74065;BME280;62421;51.412;5.432;2024-03-23T01:20:42;100933.63;;;5.56;100.00
74065;BME280;62421;51.412;5.432;2024-03-23T01:23:08;100939.81;;;5.57;100.00
74065;BME280;62421;51.412;5.432;2024-03-23T01:25:33;100949.38;;;5.61;100.00
74065;BME280;62421;51.412;5.432;2024-03-23T01:27:58;100933.63;;;5.56;100.00
74065;BME280;62421;51.412;5.432;2024-03-23T01:30:24;100944.34;;;5.54;100.00
74065;BME280;62421;51.412;5.432;2024-03-23T01:32:49;100962.00;;;5.57;100.00
74065;BME280;62421;51.412;5.432;2024-03-23T01:35:14;100949.53;;;5.58;100.00
74065;BME280;62421;51.412;5.432;2024-03-23T01:37:40;100934.63;;;5.53;100.00
74065;BME280;62421;51.412;5.432;2024-03-23T01:40:05;100944.56;;;5.50;100.00
74065;BME280;62421;51.412;5.432;2024-03-23T01:42:31;100957.03;;;5.49;100.00
74065;BME280;62421;51.412;5.432;2024-03-23T01:44:56;100958.03;;;5.47;100.00
74065;BME280;62421;51.412;5.432;2024-03-23T01:47:22;100953.63;;;5.46;100.00
74065;BME280;62421;51.412;5.432;2024-03-23T01:49:47;100948.53;;;5.41;100.00
74065;BME280;62421;51.412;5.432;2024-03-23T01:52:13;100936.22;;;5.39;100.00
74065;BME280;62421;51.412;5.432;2024-03-23T01:54:38;100935.59;;;5.33;100.00
74065;BME280;62421;51.412;5.432;2024-03-23T01:57:04;100927.66;;;5.32;100.00
74065;BME280;62421;51.412;5.432;2024-03-23T01:59:29;100937.44;;;5.31;100.00
74065;BME280;62421;51.412;5.432;2024-03-23T02:01:55;100941.81;;;5.32;100.00
74065;BME280;62421;51.412;5.432;2024-03-23T02:04:20;100944.50;;;5.32;100.00
74065;BME280;62421;51.412;5.432;2024-03-23T02:06:45;100941.03;;;5.30;100.00
74065;BME280;62421;51.412;5.432;2024-03-23T02:09:11;100962.34;;;5.30;100.00
74065;BME280;62421;51.412;5.432;2024-03-23T02:11:36;100960.53;;;5.31;100.00
74065;BME280;62421;51.412;5.432;2024-03-23T02:14:02;100972.91;;;5.32;100.00
74065;BME280;62421;51.412;5.432;2024-03-23T02:16:27;100974.00;;;5.28;100.00
74065;BME280;62421;51.412;5.432;2024-03-23T02:18:52;100968.03;;;5.23;100.00
74065;BME280;62421;51.412;5.432;2024-03-23T02:21:17;100961.38;;;5.12;100.00
74065;BME280;62421;51.412;5.432;2024-03-23T02:23:43;100967.78;;;5.08;100.00
74065;BME280;62421;51.412;5.432;2024-03-23T02:26:08;100954.47;;;5.08;100.00
74065;BME280;62421;51.412;5.432;2024-03-23T02:28:33;100934.47;;;5.00;100.00
74065;BME280;62421;51.412;5.432;2024-03-23T02:30:59;100919.50;;;4.97;100.00
74065;BME280;62421;51.412;5.432;2024-03-23T02:33:26;100907.06;;;4.98;100.00
74065;BME280;62421;51.412;5.432;2024-03-23T02:35:55;100907.97;;;4.97;100.00
74065;BME280;62421;51.412;5.432;2024-03-23T02:38:21;100910.63;;;4.97;100.00
74065;BME280;62421;51.412;5.432;2024-03-23T02:40:46;100909.66;;;4.99;100.00
74065;BME280;62421;51.412;5.432;2024-03-23T02:43:12;100913.97;;;5.02;100.00
74065;BME280;62421;51.412;5.432;2024-03-23T02:45:37;100922.88;;;5.01;100.00
74065;BME280;62421;51.412;5.432;2024-03-23T02:48:02;100920.16;;;5.02;100.00
74065;BME280;62421;51.412;5.432;2024-03-23T02:50:29;100919.28;;;5.02;100.00
74065;BME280;62421;51.412;5.432;2024-03-23T02:52:54;100911.31;;;5.02;100.00
74065;BME280;62421;51.412;5.432;2024-03-23T02:55:19;100902.38;;;5.03;100.00
74065;BME280;62421;51.412;5.432;2024-03-23T02:57:44;100910.44;;;5.01;100.00
74065;BME280;62421;51.412;5.432;2024-03-23T03:00:10;100905.19;;;5.00;100.00
74065;BME280;62421;51.412;5.432;2024-03-23T03:02:36;100904.41;;;4.98;100.00
74065;BME280;62421;51.412;5.432;2024-03-23T03:05:02;100908.19;;;4.92;100.00
74065;BME280;62421;51.412;5.432;2024-03-23T03:07:30;100907.50;;;4.88;100.00
74065;BME280;62421;51.412;5.432;2024-03-23T03:09:55;100912.06;;;4.85;100.00
74065;BME280;62421;51.412;5.432;2024-03-23T03:12:20;100909.69;;;4.79;100.00
74065;BME280;62421;51.412;5.432;2024-03-23T03:14:45;100908.94;;;4.75;100.00
74065;BME280;62421;51.412;5.432;2024-03-23T03:17:11;100914.34;;;4.74;100.00
74065;BME280;62421;51.412;5.432;2024-03-23T03:19:36;100913.63;;;4.70;100.00
74065;BME280;62421;51.412;5.432;2024-03-23T03:22:02;100914.63;;;4.67;100.00
74065;BME280;62421;51.412;5.432;2024-03-23T03:24:27;100921.81;;;4.65;100.00
74065;BME280;62421;51.412;5.432;2024-03-23T03:26:52;100913.88;;;4.64;100.00
74065;BME280;62421;51.412;5.432;2024-03-23T03:29:18;100913.84;;;4.65;100.00
74065;BME280;62421;51.412;5.432;2024-03-23T03:31:43;100924.53;;;4.64;100.00
74065;BME280;62421;51.412;5.432;2024-03-23T03:34:09;100920.06;;;4.64;100.00
74065;BME280;62421;51.412;5.432;2024-03-23T03:36:34;100916.59;;;4.62;100.00
74065;BME280;62421;51.412;5.432;2024-03-23T03:39:00;100908.03;;;4.56;100.00
74065;BME280;62421;51.412;5.432;2024-03-23T03:41:25;100908.41;;;4.48;100.00
74065;BME280;62421;51.412;5.432;2024-03-23T03:43:50;100907.81;;;4.41;100.00
74065;BME280;62421;51.412;5.432;2024-03-23T03:46:16;100908.13;;;4.34;100.00
74065;BME280;62421;51.412;5.432;2024-03-23T03:48:41;100905.72;;;4.27;100.00
74065;BME280;62421;51.412;5.432;2024-03-23T03:51:07;100890.22;;;4.17;100.00
74065;BME280;62421;51.412;5.432;2024-03-23T03:53:32;100898.41;;;4.12;100.00
74065;BME280;62421;51.412;5.432;2024-03-23T03:56:01;100893.34;;;4.06;100.00
74065;BME280;62421;51.412;5.432;2024-03-23T03:58:27;100891.81;;;4.00;100.00
74065;BME280;62421;51.412;5.432;2024-03-23T04:00:52;100898.19;;;3.96;100.00
74065;BME280;62421;51.412;5.432;2024-03-23T04:03:17;100902.72;;;3.94;100.00
74065;BME280;62421;51.412;5.432;2024-03-23T04:05:42;100902.91;;;3.89;100.00
74065;BME280;62421;51.412;5.432;2024-03-23T04:08:08;100896.91;;;3.84;100.00
74065;BME280;62421;51.412;5.432;2024-03-23T04:10:33;100904.91;;;3.83;100.00
74065;BME280;62421;51.412;5.432;2024-03-23T04:12:59;100896.34;;;3.76;100.00
74065;BME280;62421;51.412;5.432;2024-03-23T04:15:26;100891.16;;;3.73;100.00
74065;BME280;62421;51.412;5.432;2024-03-23T04:17:51;100897.47;;;3.71;100.00
74065;BME280;62421;51.412;5.432;2024-03-23T04:20:16;100894.88;;;3.69;100.00
74065;BME280;62421;51.412;5.432;2024-03-23T04:22:43;100903.88;;;3.65;100.00
74065;BME280;62421;51.412;5.432;2024-03-23T04:25:08;100896.91;;;3.62;100.00
74065;BME280;62421;51.412;5.432;2024-03-23T04:27:36;100896.97;;;3.61;100.00
74065;BME280;62421;51.412;5.432;2024-03-23T04:30:03;100905.88;;;3.60;100.00
74065;BME280;62421;51.412;5.432;2024-03-23T04:32:29;100902.41;;;3.58;100.00
74065;BME280;62421;51.412;5.432;2024-03-23T04:34:55;100899.94;;;3.53;100.00
74065;BME280;62421;51.412;5.432;2024-03-23T04:37:21;100897.47;;;3.48;100.00
74065;BME280;62421;51.412;5.432;2024-03-23T04:39:47;100893.13;;;3.46;100.00
74065;BME280;62421;51.412;5.432;2024-03-23T04:42:15;100902.94;;;3.44;100.00
74065;BME280;62421;51.412;5.432;2024-03-23T04:44:40;100898.56;;;3.43;100.00
74065;BME280;62421;51.412;5.432;2024-03-23T04:47:05;100903.84;;;3.44;100.00
74065;BME280;62421;51.412;5.432;2024-03-23T04:49:31;100904.75;;;3.43;100.00
74065;BME280;62421;51.412;5.432;2024-03-23T04:51:56;100895.97;;;3.41;100.00
74065;BME280;62421;51.412;5.432;2024-03-23T04:54:21;100896.91;;;3.40;100.00
74065;BME280;62421;51.412;5.432;2024-03-23T04:56:47;100908.38;;;3.41;100.00
74065;BME280;62421;51.412;5.432;2024-03-23T04:59:12;100900.44;;;3.41;100.00
74065;BME280;62421;51.412;5.432;2024-03-23T05:01:37;100902.22;;;3.40;100.00
74065;BME280;62421;51.412;5.432;2024-03-23T05:04:05;100904.88;;;3.40;100.00
74065;BME280;62421;51.412;5.432;2024-03-23T05:06:30;100900.47;;;3.39;100.00
74065;BME280;62421;51.412;5.432;2024-03-23T05:08:56;100903.94;;;3.41;100.00
74065;BME280;62421;51.412;5.432;2024-03-23T05:11:21;100891.66;;;3.39;100.00
74065;BME280;62421;51.412;5.432;2024-03-23T05:13:46;100891.72;;;3.37;100.00
74065;BME280;62421;51.412;5.432;2024-03-23T05:16:12;100898.88;;;3.35;100.00
74065;BME280;62421;51.412;5.432;2024-03-23T05:18:37;100894.50;;;3.34;100.00
74065;BME280;62421;51.412;5.432;2024-03-23T05:21:02;100899.81;;;3.34;100.00
74065;BME280;62421;51.412;5.432;2024-03-23T05:23:28;100897.16;;;3.34;100.00
74065;BME280;62421;51.412;5.432;2024-03-23T05:25:54;100907.81;;;3.33;100.00
74065;BME280;62421;51.412;5.432;2024-03-23T05:28:20;100896.41;;;3.31;100.00
74065;BME280;62421;51.412;5.432;2024-03-23T05:30:55;100898.25;;;3.28;100.00
74065;BME280;62421;51.412;5.432;2024-03-23T05:33:21;100907.94;;;3.30;100.00
74065;BME280;62421;51.412;5.432;2024-03-23T05:35:47;100894.78;;;3.26;100.00
74065;BME280;62421;51.412;5.432;2024-03-23T05:38:13;100907.88;;;3.31;100.00
74065;BME280;62421;51.412;5.432;2024-03-23T05:40:39;100897.19;;;3.33;100.00
74065;BME280;62421;51.412;5.432;2024-03-23T05:43:06;100900.66;;;3.35;100.00
74065;BME280;62421;51.412;5.432;2024-03-23T05:45:31;100900.66;;;3.35;100.00
74065;BME280;62421;51.412;5.432;2024-03-23T05:47:57;100901.47;;;3.37;100.00
74065;BME280;62421;51.412;5.432;2024-03-23T05:50:22;100893.56;;;3.35;100.00
74065;BME280;62421;51.412;5.432;2024-03-23T05:52:49;100890.91;;;3.35;100.00
74065;BME280;62421;51.412;5.432;2024-03-23T05:55:14;100889.06;;;3.37;100.00
74065;BME280;62421;51.412;5.432;2024-03-23T05:57:39;100890.00;;;3.36;100.00
74065;BME280;62421;51.412;5.432;2024-03-23T06:00:06;100886.41;;;3.37;100.00
74065;BME280;62421;51.412;5.432;2024-03-23T06:02:35;100886.34;;;3.39;100.00
74065;BME280;62421;51.412;5.432;2024-03-23T06:05:00;100889.00;;;3.39;100.00
74065;BME280;62421;51.412;5.432;2024-03-23T06:07:27;100889.84;;;3.39;100.00
74065;BME280;62421;51.412;5.432;2024-03-23T06:09:52;100884.50;;;3.41;100.00
74065;BME280;62421;51.412;5.432;2024-03-23T06:12:18;100899.56;;;3.40;100.00
74065;BME280;62421;51.412;5.432;2024-03-23T06:14:43;100905.69;;;3.42;100.00
74065;BME280;62421;51.412;5.432;2024-03-23T06:17:08;100909.16;;;3.44;100.00
74065;BME280;62421;51.412;5.432;2024-03-23T06:19:34;100902.66;;;3.52;100.00
74065;BME280;62421;51.412;5.432;2024-03-23T06:21:59;100903.94;;;3.63;100.00
74065;BME280;62421;51.412;5.432;2024-03-23T06:24:25;100907.06;;;3.75;100.00
74065;BME280;62421;51.412;5.432;2024-03-23T06:26:56;100910.13;;;3.86;100.00
74065;BME280;62421;51.412;5.432;2024-03-23T06:29:27;100918.31;;;4.02;100.00
74065;BME280;62421;51.412;5.432;2024-03-23T06:31:54;100909.03;;;4.12;100.00
74065;BME280;62421;51.412;5.432;2024-03-23T06:34:20;100909.19;;;4.09;100.00
74065;BME280;62421;51.412;5.432;2024-03-23T06:36:47;100904.06;;;4.04;100.00
74065;BME280;62421;51.412;5.432;2024-03-23T06:39:12;100906.72;;;4.04;100.00
74065;BME280;62421;51.412;5.432;2024-03-23T06:41:41;100906.06;;;4.20;100.00
74065;BME280;62421;51.412;5.432;2024-03-23T06:44:07;100902.53;;;4.40;100.00
74065;BME280;62421;51.412;5.432;2024-03-23T06:46:32;100908.31;;;4.49;100.00
74065;BME280;62421;51.412;5.432;2024-03-23T06:48:57;100903.94;;;4.48;100.00
74065;BME280;62421;51.412;5.432;2024-03-23T06:51:22;100907.66;;;4.44;100.00
74065;BME280;62421;51.412;5.432;2024-03-23T06:53:49;100907.66;;;4.44;100.00
74065;BME280;62421;51.412;5.432;2024-03-23T06:56:15;100907.81;;;4.41;100.00
74065;BME280;62421;51.412;5.432;2024-03-23T06:58:40;100914.19;;;4.37;100.00
74065;BME280;62421;51.412;5.432;2024-03-23T07:01:05;100923.97;;;4.37;100.00
74065;BME280;62421;51.412;5.432;2024-03-23T07:03:32;100917.94;;;4.31;100.00
74065;BME280;62421;51.412;5.432;2024-03-23T07:05:58;100913.69;;;4.27;100.00
74065;BME280;62421;51.412;5.432;2024-03-23T07:08:24;100914.75;;;4.23;100.00
74065;BME280;62421;51.412;5.432;2024-03-23T07:10:49;100917.22;;;4.28;100.00
74065;BME280;62421;51.412;5.432;2024-03-23T07:13:14;100919.41;;;4.39;100.00
74065;BME280;62421;51.412;5.432;2024-03-23T07:15:40;100923.34;;;4.50;100.00
74065;BME280;62421;51.412;5.432;2024-03-23T07:18:05;100929.59;;;4.70;100.00
74065;BME280;62421;51.412;5.432;2024-03-23T07:20:30;100923.31;;;4.91;100.00
74065;BME280;62421;51.412;5.432;2024-03-23T07:22:56;100917.69;;;4.98;100.00
74065;BME280;62421;51.412;5.432;2024-03-23T07:25:22;100918.72;;;4.95;100.00
74065;BME280;62421;51.412;5.432;2024-03-23T07:27:49;100927.44;;;4.78;100.00
74065;BME280;62421;51.412;5.432;2024-03-23T07:30:14;100931.44;;;4.68;100.00
74065;BME280;62421;51.412;5.432;2024-03-23T07:32:40;100927.41;;;4.59;100.00
74065;BME280;62421;51.412;5.432;2024-03-23T07:35:05;100934.72;;;4.54;100.00
74065;BME280;62421;51.412;5.432;2024-03-23T07:37:30;100930.38;;;4.51;100.00
74065;BME280;62421;51.412;5.432;2024-03-23T07:39:56;100922.34;;;4.53;100.00
74065;BME280;62421;51.412;5.432;2024-03-23T07:42:22;100927.13;;;4.65;100.00
74065;BME280;62421;51.412;5.432;2024-03-23T07:44:48;100930.63;;;4.86;100.00
74065;BME280;62421;51.412;5.432;2024-03-23T07:47:14;100932.28;;;4.89;100.00
74065;BME280;62421;51.412;5.432;2024-03-23T07:49:39;100913.44;;;4.93;100.00
74065;BME280;62421;51.412;5.432;2024-03-23T07:52:05;100918.78;;;4.93;100.00
74065;BME280;62421;51.412;5.432;2024-03-23T07:54:30;100920.00;;;4.86;100.00
74065;BME280;62421;51.412;5.432;2024-03-23T07:56:56;100913.59;;;4.90;100.00
74065;BME280;62421;51.412;5.432;2024-03-23T07:59:21;100923.44;;;4.88;100.00
74065;BME280;62421;51.412;5.432;2024-03-23T08:01:46;100931.63;;;4.84;100.00
74065;BME280;62421;51.412;5.432;2024-03-23T08:04:11;100915.16;;;4.95;100.00
74065;BME280;62421;51.412;5.432;2024-03-23T08:06:38;100919.25;;;4.83;100.00
74065;BME280;62421;51.412;5.432;2024-03-23T08:09:03;100925.22;;;4.88;100.00
74065;BME280;62421;51.412;5.432;2024-03-23T08:11:30;100926.75;;;4.93;100.00
74065;BME280;62421;51.412;5.432;2024-03-23T08:13:57;100916.06;;;4.95;100.00
74065;BME280;62421;51.412;5.432;2024-03-23T08:16:22;100916.53;;;5.03;100.00
74065;BME280;62421;51.412;5.432;2024-03-23T08:18:48;100911.81;;;5.10;100.00
74065;BME280;62421;51.412;5.432;2024-03-23T08:21:13;100917.56;;;5.20;100.00
74065;BME280;62421;51.412;5.432;2024-03-23T08:23:39;100915.63;;;5.23;100.00
74065;BME280;62421;51.412;5.432;2024-03-23T08:26:12;100922.84;;;5.40;100.00
74065;BME280;62421;51.412;5.432;2024-03-23T08:28:38;100918.66;;;5.53;100.00
74065;BME280;62421;51.412;5.432;2024-03-23T08:31:06;100909.75;;;5.72;100.00
74065;BME280;62421;51.412;5.432;2024-03-23T08:33:32;100911.34;;;5.93;100.00
74065;BME280;62421;51.412;5.432;2024-03-23T08:36:01;100923.75;;;6.13;100.00
74065;BME280;62421;51.412;5.432;2024-03-23T08:38:28;100917.63;;;6.29;100.00
74065;BME280;62421;51.412;5.432;2024-03-23T08:40:57;100919.44;;;6.28;100.00
74065;BME280;62421;51.412;5.432;2024-03-23T08:43:23;100918.66;;;6.09;100.00
74065;BME280;62421;51.412;5.432;2024-03-23T08:45:48;100934.06;;;6.02;100.00
74065;BME280;62421;51.412;5.432;2024-03-23T08:48:13;100917.88;;;6.07;100.00
74065;BME280;62421;51.412;5.432;2024-03-23T08:50:39;100910.19;;;6.18;100.00
74065;BME280;62421;51.412;5.432;2024-03-23T08:53:04;100910.09;;;6.20;100.00
74065;BME280;62421;51.412;5.432;2024-03-23T08:55:29;100912.66;;;6.39;100.00
74065;BME280;62421;51.412;5.432;2024-03-23T08:57:55;100910.72;;;6.42;100.00
74065;BME280;62421;51.412;5.432;2024-03-23T09:00:21;100905.31;;;6.44;100.00
74065;BME280;62421;51.412;5.432;2024-03-23T09:02:50;100912.91;;;6.51;100.00
74065;BME280;62421;51.412;5.432;2024-03-23T09:05:15;100908.44;;;6.69;100.00
74065;BME280;62421;51.412;5.432;2024-03-23T09:07:40;100917.38;;;7.02;100.00
74065;BME280;62421;51.412;5.432;2024-03-23T09:10:07;100903.31;;;7.31;100.00
74065;BME280;62421;51.412;5.432;2024-03-23T09:12:33;100928.84;;;7.20;100.00
74065;BME280;62421;51.412;5.432;2024-03-23T09:14:58;100926.53;;;6.80;100.00
74065;BME280;62421;51.412;5.432;2024-03-23T09:17:24;100934.97;;;6.20;100.00
74065;BME280;62421;51.412;5.432;2024-03-23T09:19:49;100924.13;;;5.87;100.00
74065;BME280;62421;51.412;5.432;2024-03-23T09:22:14;100924.81;;;5.73;100.00
74065;BME280;62421;51.412;5.432;2024-03-23T09:24:40;100925.78;;;5.53;100.00
74065;BME280;62421;51.412;5.432;2024-03-23T09:27:05;100930.38;;;5.30;100.00
74065;BME280;62421;51.412;5.432;2024-03-23T09:29:31;100923.47;;;5.26;100.00
74065;BME280;62421;51.412;5.432;2024-03-23T09:31:56;100916.16;;;5.31;100.00
74065;BME280;62421;51.412;5.432;2024-03-23T09:34:21;100926.00;;;5.29;100.00
74065;BME280;62421;51.412;5.432;2024-03-23T09:36:47;100924.25;;;5.28;100.00
74065;BME280;62421;51.412;5.432;2024-03-23T09:39:15;100915.72;;;5.41;100.00
74065;BME280;62421;51.412;5.432;2024-03-23T09:41:40;100915.13;;;5.53;100.00
74065;BME280;62421;51.412;5.432;2024-03-23T09:44:06;100915.31;;;5.67;100.00
74065;BME280;62421;51.412;5.432;2024-03-23T09:46:32;100921.00;;;5.79;100.00
74065;BME280;62421;51.412;5.432;2024-03-23T09:49:02;100905.63;;;5.84;100.00
74065;BME280;62421;51.412;5.432;2024-03-23T09:51:30;100906.00;;;5.95;100.00
74065;BME280;62421;51.412;5.432;2024-03-23T09:53:56;100917.94;;;6.05;100.00
74065;BME280;62421;51.412;5.432;2024-03-23T09:56:22;100906.88;;;6.13;100.00
74065;BME280;62421;51.412;5.432;2024-03-23T09:58:49;100908.59;;;6.14;100.00
74065;BME280;62421;51.412;5.432;2024-03-23T10:01:14;100906.00;;;6.12;100.00
74065;BME280;62421;51.412;5.432;2024-03-23T10:03:46;100923.25;;;6.05;100.00
74065;BME280;62421;51.412;5.432;2024-03-23T10:06:12;100925.03;;;5.68;100.00
74065;BME280;62421;51.412;5.432;2024-03-23T10:08:37;100914.34;;;5.32;100.00
74065;BME280;62421;51.412;5.432;2024-03-23T10:11:16;100915.84;;;5.00;100.00
74065;BME280;62421;51.412;5.432;2024-03-23T10:13:42;100917.66;;;4.79;100.00
74065;BME280;62421;51.412;5.432;2024-03-23T10:16:09;100916.00;;;4.76;100.00
74065;BME280;62421;51.412;5.432;2024-03-23T10:18:38;100901.84;;;4.76;100.00
74065;BME280;62421;51.412;5.432;2024-03-23T10:23:36;100892.44;;;4.87;100.00
74065;BME280;62421;51.412;5.432;2024-03-23T10:28:52;100890.34;;;4.94;100.00
74065;BME280;62421;51.412;5.432;2024-03-23T10:31:18;100906.31;;;4.94;100.00
74065;BME280;62421;51.412;5.432;2024-03-23T10:33:45;100900.38;;;5.08;100.00
74065;BME280;62421;51.412;5.432;2024-03-23T10:36:11;100894.91;;;5.30;100.00
74065;BME280;62421;51.412;5.432;2024-03-23T10:38:38;100889.88;;;5.43;100.00
74065;BME280;62421;51.412;5.432;2024-03-23T10:41:05;100897.91;;;5.60;100.00
74065;BME280;62421;51.412;5.432;2024-03-23T10:43:32;100907.59;;;5.61;100.00
74065;BME280;62421;51.412;5.432;2024-03-23T10:45:58;100903.69;;;5.51;100.00
74065;BME280;62421;51.412;5.432;2024-03-23T10:48:23;100894.69;;;5.34;100.00
74065;BME280;62421;51.412;5.432;2024-03-23T10:50:48;100888.78;;;5.28;100.00
74065;BME280;62421;51.412;5.432;2024-03-23T10:53:14;100890.22;;;5.35;100.00
74065;BME280;62421;51.412;5.432;2024-03-23T10:55:42;100883.22;;;5.51;100.00
74065;BME280;62421;51.412;5.432;2024-03-23T10:58:10;100883.03;;;5.73;100.00
74065;BME280;62421;51.412;5.432;2024-03-23T11:00:38;100878.06;;;6.02;100.00
74065;BME280;62421;51.412;5.432;2024-03-23T11:03:32;100878.25;;;6.17;100.00
74065;BME280;62421;51.412;5.432;2024-03-23T11:05:59;100879.19;;;5.98;100.00
74065;BME280;62421;51.412;5.432;2024-03-23T11:08:32;100880.59;;;5.69;100.00
74065;BME280;62421;51.412;5.432;2024-03-23T11:11:19;100887.13;;;5.44;100.00
74065;BME280;62421;51.412;5.432;2024-03-23T11:13:48;100893.78;;;5.36;100.00
74065;BME280;62421;51.412;5.432;2024-03-23T11:16:17;100890.94;;;5.20;100.00
74065;BME280;62421;51.412;5.432;2024-03-23T11:18:46;100896.19;;;5.02;100.00
74065;BME280;62421;51.412;5.432;2024-03-23T11:24:15;100904.63;;;4.72;100.00
74065;BME280;62421;51.412;5.432;2024-03-23T11:26:40;100903.03;;;4.68;100.00
74065;BME280;62421;51.412;5.432;2024-03-23T11:29:10;100882.22;;;4.78;100.00
74065;BME280;62421;51.412;5.432;2024-03-23T11:31:37;100889.44;;;4.95;100.00
74065;BME280;62421;51.412;5.432;2024-03-23T11:34:04;100880.16;;;5.23;100.00
74065;BME280;62421;51.412;5.432;2024-03-23T11:36:30;100898.38;;;5.32;100.00
74065;BME280;62421;51.412;5.432;2024-03-23T11:38:55;100900.16;;;5.31;100.00
74065;BME280;62421;51.412;5.432;2024-03-23T11:41:21;100897.34;;;5.34;100.00
74065;BME280;62421;51.412;5.432;2024-03-23T11:43:46;100897.97;;;5.40;100.00
74065;BME280;62421;51.412;5.432;2024-03-23T11:46:11;100904.25;;;5.39;100.00
74065;BME280;62421;51.412;5.432;2024-03-23T11:48:49;100899.50;;;5.45;100.00
74065;BME280;62421;51.412;5.432;2024-03-23T11:51:16;100932.97;;;5.51;100.00
74065;BME280;62421;51.412;5.432;2024-03-23T11:53:42;100946.28;;;5.32;100.00
74065;BME280;62421;51.412;5.432;2024-03-23T11:56:07;100943.66;;;5.11;100.00
74065;BME280;62421;51.412;5.432;2024-03-23T11:58:34;100934.47;;;4.79;100.00
74065;BME280;62421;51.412;5.432;2024-03-23T12:01:01;100939.47;;;4.66;100.00
74065;BME280;62421;51.412;5.432;2024-03-23T12:03:29;100933.31;;;4.66;100.00
74065;BME280;62421;51.412;5.432;2024-03-23T12:06:04;100942.41;;;4.40;100.00
74065;BME280;62421;51.412;5.432;2024-03-23T12:08:34;100938.22;;;4.34;100.00
74065;BME280;62421;51.412;5.432;2024-03-23T12:13:31;100928.25;;;4.60;100.00
74065;BME280;62421;51.412;5.432;2024-03-23T12:16:21;100910.88;;;5.11;100.00
74065;BME280;62421;51.412;5.432;2024-03-23T12:18:48;100898.81;;;5.59;100.00
74065;BME280;62421;51.412;5.432;2024-03-23T12:21:14;100904.97;;;5.98;100.00
74065;BME280;62421;51.412;5.432;2024-03-23T12:23:40;100883.66;;;6.15;100.00
74065;BME280;62421;51.412;5.432;2024-03-23T12:26:05;100883.81;;;6.29;100.00
74065;BME280;62421;51.412;5.432;2024-03-23T12:28:31;100877.28;;;6.52;100.00
74065;BME280;62421;51.412;5.432;2024-03-23T12:30:57;100885.44;;;6.67;100.00
74065;BME280;62421;51.412;5.432;2024-03-23T12:33:24;100875.84;;;6.96;100.00
74065;BME280;62421;51.412;5.432;2024-03-23T12:35:52;100875.03;;;7.43;100.00
74065;BME280;62421;51.412;5.432;2024-03-23T12:38:19;100862.84;;;7.69;100.00
74065;BME280;62421;51.412;5.432;2024-03-23T12:40:48;100864.94;;;7.64;100.00
74065;BME280;62421;51.412;5.432;2024-03-23T12:43:13;100881.84;;;7.49;100.00
74065;BME280;62421;51.412;5.432;2024-03-23T12:45:39;100868.81;;;7.43;100.00
74065;BME280;62421;51.412;5.432;2024-03-23T12:48:04;100867.00;;;7.43;100.00
74065;BME280;62421;51.412;5.432;2024-03-23T12:50:30;100859.94;;;7.26;100.00
74065;BME280;62421;51.412;5.432;2024-03-23T12:52:55;100845.22;;;7.19;100.00
74065;BME280;62421;51.412;5.432;2024-03-23T12:55:20;100857.44;;;7.23;100.00
74065;BME280;62421;51.412;5.432;2024-03-23T12:57:46;100855.03;;;7.34;100.00
74065;BME280;62421;51.412;5.432;2024-03-23T13:00:12;100853.22;;;7.51;100.00
74065;BME280;62421;51.412;5.432;2024-03-23T13:02:38;100857.88;;;7.47;100.00
74065;BME280;62421;51.412;5.432;2024-03-23T13:05:04;100858.31;;;7.55;100.00
74065;BME280;62421;51.412;5.432;2024-03-23T13:07:30;100850.38;;;7.54;100.00
74065;BME280;62421;51.412;5.432;2024-03-23T13:09:55;100841.16;;;7.44;100.00
74065;BME280;62421;51.412;5.432;2024-03-23T13:12:22;100849.75;;;7.33;100.00
74065;BME280;62421;51.412;5.432;2024-03-23T13:14:48;100848.13;;;7.30;100.00
74065;BME280;62421;51.412;5.432;2024-03-23T13:17:13;100843.84;;;7.28;100.00
74065;BME280;62421;51.412;5.432;2024-03-23T13:19:39;100847.63;;;7.24;100.00
74065;BME280;62421;51.412;5.432;2024-03-23T13:22:04;100847.94;;;7.33;100.00
74065;BME280;62421;51.412;5.432;2024-03-23T13:24:30;100846.75;;;7.39;100.00
74065;BME280;62421;51.412;5.432;2024-03-23T13:26:56;100850.19;;;7.57;100.00
74065;BME280;62421;51.412;5.432;2024-03-23T13:29:22;100855.28;;;7.62;100.00
74065;BME280;62421;51.412;5.432;2024-03-23T13:31:49;100851.41;;;7.51;100.00
74065;BME280;62421;51.412;5.432;2024-03-23T13:34:15;100852.19;;;7.37;100.00
74065;BME280;62421;51.412;5.432;2024-03-23T13:36:46;100842.34;;;7.22;100.00
74065;BME280;62421;51.412;5.432;2024-03-23T13:39:12;100841.31;;;6.93;100.00
74065;BME280;62421;51.412;5.432;2024-03-23T13:41:38;100833.31;;;7.09;100.00
74065;BME280;62421;51.412;5.432;2024-03-23T13:44:05;100837.03;;;7.06;100.00
74065;BME280;62421;51.412;5.432;2024-03-23T13:46:30;100831.31;;;6.96;100.00
74065;BME280;62421;51.412;5.432;2024-03-23T13:48:56;100827.09;;;6.92;100.00